createdAt,value
2023-04-29T00:00:18.963Z,5.60
2023-04-29T00:01:23.448Z,6.20
2023-04-29T00:02:30.467Z,6.30
2023-04-29T00:03:33.708Z,6.60
2023-04-29T00:04:37.768Z,4.40
2023-04-29T00:05:42.152Z,6.60
2023-04-29T00:06:46.519Z,5.40
2023-04-29T00:07:49.820Z,6.20
2023-04-29T00:08:53.831Z,6.60
2023-04-29T00:09:57.282Z,6.80
2023-04-29T00:11:01.206Z,7.20
2023-04-29T00:12:04.380Z,6.20
2023-04-29T00:13:08.611Z,6.60
2023-04-29T00:14:11.828Z,5.90
2023-04-29T00:15:20.945Z,6.20
2023-04-29T00:16:24.370Z,5.30
2023-04-29T00:17:27.491Z,6.30
2023-04-29T00:18:30.818Z,4.50
2023-04-29T00:19:33.662Z,6.30
2023-04-29T00:20:39.699Z,5.60
2023-04-29T00:21:43.718Z,5.80
2023-04-29T00:22:47.404Z,5.70
2023-04-29T00:23:50.744Z,6.30
2023-04-29T00:24:56.344Z,3.40
2023-04-29T00:25:59.545Z,5.50
2023-04-29T00:27:03.397Z,5.70
2023-04-29T00:28:06.557Z,4.70
2023-04-29T00:29:10.033Z,6.10
2023-04-29T00:30:13.372Z,5.80
2023-04-29T00:31:17.021Z,5.60
2023-04-29T00:32:20.144Z,5.90
2023-04-29T00:33:24.331Z,6.60
2023-04-29T00:34:27.320Z,4.90
2023-04-29T00:35:32.179Z,6.40
2023-04-29T00:36:35.576Z,5.50
2023-04-29T00:37:39.314Z,7.10
2023-04-29T00:38:43.035Z,5.70
2023-04-29T00:39:46.429Z,5.60
2023-04-29T00:40:50.895Z,5.40
2023-04-29T00:41:54.402Z,6.60
2023-04-29T00:42:59.048Z,5.30
2023-04-29T00:44:02.850Z,6.30
2023-04-29T00:45:08.308Z,6.40
2023-04-29T00:46:13.261Z,5.70
2023-04-29T00:47:16.985Z,6.30
2023-04-29T00:48:21.486Z,5.00
2023-04-29T00:49:25.631Z,4.80
2023-04-29T00:50:28.887Z,5.60
2023-04-29T00:51:33.735Z,5.40
2023-04-29T00:52:37.688Z,4.60
2023-04-29T00:53:41.512Z,6.40
2023-04-29T00:54:45.287Z,5.50
2023-04-29T00:55:50.620Z,4.00
2023-04-29T00:56:54.703Z,5.60
2023-04-29T00:57:57.880Z,6.64
2023-04-29T00:59:04.129Z,4.60
2023-04-29T01:00:09.542Z,5.50
2023-04-29T01:01:12.565Z,4.60
2023-04-29T01:02:15.885Z,5.50
2023-04-29T01:03:20.617Z,4.80
2023-04-29T01:04:23.841Z,4.50
2023-04-29T01:05:27.240Z,6.00
2023-04-29T01:06:51.900Z,5.20
2023-04-29T01:07:59.274Z,5.50
2023-04-29T01:09:36.221Z,4.30
2023-04-29T01:12:43.145Z,3.80
2023-04-29T01:13:53.946Z,4.80
2023-04-29T01:15:09.486Z,5.00
2023-04-29T01:16:42.188Z,1.60
2023-04-29T01:18:08.058Z,5.40
2023-04-29T01:19:17.393Z,5.40
2023-04-29T01:20:20.572Z,5.80
2023-04-29T01:21:24.762Z,6.30
2023-04-29T01:22:29.123Z,4.70
2023-04-29T01:23:32.448Z,4.90
2023-04-29T01:24:36.406Z,4.80
2023-04-29T01:25:40.342Z,3.90
2023-04-29T01:26:47.955Z,5.60
2023-04-29T01:28:15.020Z,5.40
2023-04-29T01:29:34.136Z,4.40
2023-04-29T01:31:02.288Z,5.00
2023-04-29T01:32:11.068Z,5.00
2023-04-29T01:33:24.877Z,4.70
2023-04-29T01:34:31.868Z,5.60
2023-04-29T01:37:07.069Z,3.70
2023-04-29T01:38:30.452Z,4.50
2023-04-29T01:39:38.138Z,4.70
2023-04-29T01:42:10.325Z,4.20
2023-04-29T01:43:13.427Z,4.20
2023-04-29T01:44:23.494Z,4.50
2023-04-29T01:45:26.893Z,4.00
2023-04-29T01:46:30.107Z,4.60
2023-04-29T01:47:35.014Z,4.30
2023-04-29T01:48:38.460Z,4.80
2023-04-29T01:49:42.403Z,5.00
2023-04-29T01:50:45.495Z,5.40
2023-04-29T01:53:02.490Z,5.20
2023-04-29T01:55:20.502Z,4.60
2023-04-29T01:56:25.796Z,4.30
2023-04-29T01:57:37.716Z,3.60
2023-04-29T01:58:51.706Z,4.30
2023-04-29T01:59:57.112Z,3.30
2023-04-29T02:01:22.762Z,4.50
2023-04-29T02:02:27.219Z,4.20
2023-04-29T02:03:32.183Z,3.60
2023-04-29T02:04:37.432Z,3.60
2023-04-29T02:05:41.408Z,3.90
2023-04-29T02:06:44.650Z,3.80
2023-04-29T02:07:48.758Z,4.80
2023-04-29T02:08:53.297Z,4.00
2023-04-29T02:09:57.178Z,3.80
2023-04-29T02:11:00.577Z,4.30
2023-04-29T02:12:12.060Z,4.50
2023-04-29T02:13:15.990Z,4.20
2023-04-29T02:15:32.267Z,4.40
2023-04-29T02:16:35.695Z,4.45
2023-04-29T02:17:41.022Z,4.60
2023-04-29T02:18:44.042Z,4.00
2023-04-29T02:19:47.238Z,4.50
2023-04-29T02:20:51.803Z,4.40
2023-04-29T02:21:55.106Z,3.90
2023-04-29T02:22:57.810Z,4.50
2023-04-29T02:24:01.018Z,4.64
2023-04-29T02:25:06.387Z,4.40
2023-04-29T02:26:11.211Z,3.60
2023-04-29T02:27:14.618Z,4.30
2023-04-29T02:28:19.015Z,4.00
2023-04-29T02:29:22.213Z,4.00
2023-04-29T02:30:25.434Z,3.90
2023-04-29T02:31:28.649Z,3.82
2023-04-29T02:32:32.675Z,3.90
2023-04-29T02:34:48.832Z,3.80
2023-04-29T02:35:53.036Z,3.60
2023-04-29T02:36:56.249Z,4.60
2023-04-29T02:37:59.952Z,5.70
2023-04-29T02:39:03.127Z,4.60
2023-04-29T02:40:08.573Z,5.60
2023-04-29T02:42:30.064Z,3.70
2023-04-29T02:43:33.018Z,3.10
2023-04-29T02:44:38.221Z,3.40
2023-04-29T02:45:41.478Z,3.00
2023-04-29T02:46:44.874Z,3.70
2023-04-29T02:47:47.923Z,5.10
2023-04-29T02:48:51.105Z,4.30
2023-04-29T02:49:55.260Z,3.90
2023-04-29T02:50:58.144Z,3.80
2023-04-29T02:52:01.849Z,4.00
2023-04-29T02:53:05.599Z,3.20
2023-04-29T02:54:08.904Z,4.10
2023-04-29T02:55:11.711Z,4.20
2023-04-29T02:56:15.791Z,3.90
2023-04-29T02:57:18.716Z,4.00
2023-04-29T02:58:23.396Z,3.50
2023-04-29T03:00:40.245Z,3.20
2023-04-29T03:01:43.921Z,3.80
2023-04-29T03:02:48.044Z,3.60
2023-04-29T03:03:52.599Z,3.80
2023-04-29T03:04:55.908Z,4.10
2023-04-29T03:05:58.859Z,3.73
2023-04-29T03:07:02.723Z,3.70
2023-04-29T03:08:06.131Z,4.40
2023-04-29T03:09:10.425Z,3.80
2023-04-29T03:10:15.562Z,2.80
2023-04-29T03:11:20.008Z,3.10
2023-04-29T03:12:23.229Z,3.30
2023-04-29T03:13:26.031Z,3.50
2023-04-29T03:14:29.079Z,3.90
2023-04-29T03:15:31.866Z,2.00
2023-04-29T03:16:35.533Z,4.00
2023-04-29T03:17:39.873Z,4.00
2023-04-29T03:18:43.482Z,4.20
2023-04-29T03:19:46.192Z,4.00
2023-04-29T03:20:50.201Z,3.27
2023-04-29T03:21:54.011Z,3.50
2023-04-29T03:22:59.368Z,3.00
2023-04-29T03:24:02.720Z,3.00
2023-04-29T03:25:09.905Z,4.20
2023-04-29T03:26:14.093Z,3.80
2023-04-29T03:27:17.841Z,4.70
2023-04-29T03:28:22.091Z,3.90
2023-04-29T03:29:26.297Z,3.70
2023-04-29T03:30:30.553Z,4.10
2023-04-29T03:31:34.471Z,2.60
2023-04-29T03:32:40.190Z,3.20
2023-04-29T03:33:44.777Z,4.70
2023-04-29T03:34:49.975Z,4.60
2023-04-29T03:36:00.888Z,2.40
2023-04-29T03:37:18.745Z,3.00
2023-04-29T03:38:25.374Z,3.50
2023-04-29T03:40:44.830Z,3.00
2023-04-29T03:41:48.268Z,3.90
2023-04-29T03:42:52.379Z,3.00
2023-04-29T03:43:57.246Z,2.90
2023-04-29T03:45:01.480Z,3.70
2023-04-29T03:46:06.509Z,2.90
2023-04-29T03:47:10.947Z,2.00
2023-04-29T03:48:14.320Z,3.90
2023-04-29T03:49:18.317Z,3.50
2023-04-29T03:50:23.346Z,4.30
2023-04-29T03:51:28.568Z,3.50
2023-04-29T03:52:35.345Z,4.50
2023-04-29T03:53:41.383Z,2.80
2023-04-29T03:54:45.652Z,2.90
2023-04-29T03:55:49.179Z,4.50
2023-04-29T03:56:54.278Z,3.90
2023-04-29T03:57:58.462Z,3.00
2023-04-29T03:59:01.770Z,3.50
2023-04-29T04:00:07.391Z,3.00
2023-04-29T04:01:21.204Z,4.40
2023-04-29T04:02:25.124Z,3.60
2023-04-29T04:03:28.742Z,3.60
2023-04-29T04:04:33.696Z,3.10
2023-04-29T04:05:37.643Z,2.91
2023-04-29T04:06:43.360Z,3.70
2023-04-29T04:07:47.367Z,2.90
2023-04-29T04:09:08.943Z,3.80
2023-04-29T04:10:13.522Z,1.20
2023-04-29T04:11:16.823Z,3.10
2023-04-29T04:12:28.047Z,3.20
2023-04-29T04:13:31.867Z,4.60
2023-04-29T04:14:35.578Z,3.80
2023-04-29T04:15:38.801Z,3.10
2023-04-29T04:16:42.264Z,3.50
2023-04-29T04:17:45.466Z,3.20
2023-04-29T04:18:48.509Z,3.20
2023-04-29T04:19:51.846Z,3.30
2023-04-29T04:20:55.454Z,3.10
2023-04-29T04:22:04.306Z,2.90
2023-04-29T04:23:08.571Z,3.20
2023-04-29T04:24:11.805Z,3.30
2023-04-29T04:25:14.904Z,3.20
2023-04-29T04:26:18.468Z,3.40
2023-04-29T04:27:33.961Z,3.00
2023-04-29T04:28:39.192Z,3.00
2023-04-29T04:29:43.810Z,3.50
2023-04-29T04:32:02.933Z,3.20
2023-04-29T04:33:06.333Z,3.70
2023-04-29T04:34:10.808Z,4.40
2023-04-29T04:35:15.347Z,2.50
2023-04-29T04:36:20.043Z,3.60
2023-04-29T04:37:24.376Z,2.20
2023-04-29T04:38:28.956Z,2.80
2023-04-29T04:39:32.009Z,2.50
2023-04-29T04:40:35.873Z,2.50
2023-04-29T04:41:47.132Z,2.90
2023-04-29T04:42:50.522Z,0.00
2023-04-29T04:43:54.822Z,3.00
2023-04-29T04:45:10.907Z,3.40
2023-04-29T04:46:17.161Z,3.30
2023-04-29T04:47:31.268Z,4.20
2023-04-29T04:49:52.284Z,3.80
2023-04-29T04:52:09.846Z,3.80
2023-04-29T04:53:12.858Z,3.80
2023-04-29T04:54:17.210Z,5.00
2023-04-29T04:55:22.416Z,5.00
2023-04-29T04:56:26.358Z,4.10
2023-04-29T04:57:29.154Z,4.70
2023-04-29T04:58:33.110Z,4.27
2023-04-29T04:59:35.782Z,5.40
2023-04-29T05:01:52.737Z,5.10
2023-04-29T05:02:56.270Z,6.27
2023-04-29T05:04:00.529Z,5.30
2023-04-29T05:05:06.038Z,6.60
2023-04-29T05:06:10.926Z,9.20
2023-04-29T05:07:16.029Z,8.20
2023-04-29T05:08:20.818Z,6.20
2023-04-29T05:09:24.273Z,7.80
2023-04-29T05:10:27.496Z,6.60
2023-04-29T05:11:31.871Z,6.70
2023-04-29T05:12:37.518Z,6.60
2023-04-29T05:13:41.277Z,5.90
2023-04-29T05:14:44.381Z,7.20
2023-04-29T05:15:47.847Z,7.20
2023-04-29T05:16:53.681Z,8.10
2023-04-29T05:17:56.553Z,5.00
2023-04-29T05:19:00.025Z,7.10
2023-04-29T05:21:19.747Z,7.70
2023-04-29T05:22:24.628Z,6.60
2023-04-29T05:23:27.634Z,4.00
2023-04-29T05:24:30.388Z,7.40
2023-04-29T05:25:33.301Z,5.40
2023-04-29T05:26:37.302Z,7.40
2023-04-29T05:27:43.761Z,6.80
2023-04-29T05:28:48.871Z,7.00
2023-04-29T05:29:54.034Z,3.80
2023-04-29T05:30:57.163Z,5.10
2023-04-29T05:32:00.260Z,4.55
2023-04-29T05:33:03.200Z,6.80
2023-04-29T05:34:06.907Z,5.50
2023-04-29T05:35:09.770Z,6.60
2023-04-29T05:36:14.124Z,6.90
2023-04-29T05:37:17.627Z,6.00
2023-04-29T05:38:26.872Z,4.60
2023-04-29T05:39:32.027Z,5.10
2023-04-29T05:40:37.569Z,6.70
2023-04-29T05:42:00.455Z,0.20
2023-04-29T05:43:05.222Z,5.90
2023-04-29T05:44:08.415Z,4.90
2023-04-29T05:45:12.215Z,0.36
2023-04-29T05:46:16.789Z,5.30
2023-04-29T05:47:21.719Z,5.70
2023-04-29T05:48:25.638Z,4.60
2023-04-29T05:49:28.502Z,6.00
2023-04-29T05:50:32.340Z,4.70
2023-04-29T05:51:35.198Z,5.90
2023-04-29T05:52:40.102Z,5.00
2023-04-29T05:53:42.952Z,3.60
2023-04-29T05:54:46.922Z,4.60
2023-04-29T05:55:51.203Z,4.00
2023-04-29T05:56:55.913Z,5.20
2023-04-29T05:57:58.645Z,4.55
2023-04-29T05:59:02.673Z,3.45
2023-04-29T06:00:07.053Z,4.60
2023-04-29T06:01:12.622Z,4.90
2023-04-29T06:02:16.523Z,5.00
2023-04-29T06:03:20.722Z,5.60
2023-04-29T06:04:26.495Z,4.10
2023-04-29T06:05:39.332Z,0.60
2023-04-29T06:08:13.254Z,4.50
2023-04-29T06:09:27.430Z,4.00
2023-04-29T06:10:26.741Z,5.10
2023-04-29T06:11:29.577Z,3.00
2023-04-29T06:12:32.854Z,3.73
2023-04-29T06:13:36.699Z,4.20
2023-04-29T06:14:40.993Z,4.10
2023-04-29T06:15:45.982Z,3.20
2023-04-29T06:16:50.511Z,4.10
2023-04-29T06:19:06.080Z,2.90
2023-04-29T06:20:12.541Z,4.70
2023-04-29T06:21:15.700Z,3.40
2023-04-29T06:22:20.002Z,0.20
2023-04-29T06:23:24.957Z,2.40
2023-04-29T06:24:28.210Z,3.80
2023-04-29T06:25:32.771Z,3.80
2023-04-29T06:27:50.004Z,3.40
2023-04-29T06:28:54.612Z,4.20
2023-04-29T06:29:58.386Z,4.00
2023-04-29T06:31:01.786Z,3.80
2023-04-29T06:32:04.766Z,3.36
2023-04-29T06:33:09.616Z,4.40
2023-04-29T06:34:15.026Z,3.40
2023-04-29T06:35:21.872Z,3.40
2023-04-29T06:36:43.646Z,3.00
2023-04-29T06:37:56.050Z,2.70
2023-04-29T06:39:04.051Z,3.40
2023-04-29T06:40:14.462Z,3.50
2023-04-29T06:41:37.482Z,3.50
2023-04-29T06:42:45.075Z,3.50
2023-04-29T06:45:04.910Z,3.10
2023-04-29T06:46:13.836Z,4.00
2023-04-29T06:47:19.623Z,3.40
2023-04-29T06:48:27.978Z,2.10
2023-04-29T06:49:31.152Z,3.00
2023-04-29T06:50:35.887Z,3.50
2023-04-29T06:51:39.074Z,3.00
2023-04-29T06:52:42.370Z,3.00
2023-04-29T06:53:47.641Z,3.90
2023-04-29T06:54:56.375Z,2.50
2023-04-29T06:55:59.255Z,3.30
2023-04-29T06:57:05.127Z,2.82
2023-04-29T06:58:08.210Z,2.90
2023-04-29T07:00:25.302Z,2.30
2023-04-29T07:01:30.964Z,3.00
2023-04-29T07:02:34.389Z,2.90
2023-04-29T07:03:38.836Z,2.80
2023-04-29T07:04:43.514Z,2.90
2023-04-29T07:05:46.303Z,2.40
2023-04-29T07:06:51.599Z,2.90
2023-04-29T07:07:54.729Z,3.80
2023-04-29T07:08:58.676Z,2.80
2023-04-29T07:10:01.745Z,3.30
2023-04-29T07:11:05.655Z,3.60
2023-04-29T07:12:08.694Z,2.90
2023-04-29T07:13:11.635Z,2.70
2023-04-29T07:14:17.070Z,2.27
2023-04-29T07:15:19.965Z,2.40
2023-04-29T07:16:25.732Z,3.00
2023-04-29T07:17:31.856Z,2.30
2023-04-29T07:18:35.433Z,3.00
2023-04-29T07:19:38.552Z,2.80
2023-04-29T07:20:44.166Z,1.90
2023-04-29T07:21:47.095Z,2.90
2023-04-29T07:22:50.536Z,3.20
2023-04-29T07:23:54.867Z,2.30
2023-04-29T07:24:58.545Z,1.60
2023-04-29T07:26:13.015Z,1.00
2023-04-29T07:27:16.634Z,2.00
2023-04-29T07:28:19.404Z,2.40
2023-04-29T07:29:22.086Z,3.27
2023-04-29T07:31:38.580Z,1.90
2023-04-29T07:32:41.570Z,2.30
2023-04-29T07:33:49.284Z,3.00
2023-04-29T07:34:54.805Z,3.20
2023-04-29T07:35:58.303Z,2.40
2023-04-29T07:37:04.100Z,1.80
2023-04-29T07:38:07.171Z,1.90
2023-04-29T07:39:11.772Z,2.50
2023-04-29T07:40:16.087Z,1.60
2023-04-29T07:41:19.120Z,2.30
2023-04-29T07:42:24.501Z,3.30
2023-04-29T07:43:28.595Z,3.00
2023-04-29T07:44:31.230Z,2.40
2023-04-29T07:45:34.426Z,3.00
2023-04-29T07:46:37.503Z,2.10
2023-04-29T07:47:40.648Z,2.80
2023-04-29T07:48:45.564Z,2.30
2023-04-29T07:49:48.342Z,3.00
2023-04-29T07:50:51.645Z,2.45
2023-04-29T07:51:55.390Z,3.30
2023-04-29T07:53:01.222Z,2.70
2023-04-29T07:54:05.242Z,2.50
2023-04-29T07:55:09.243Z,1.90
2023-04-29T07:56:13.150Z,2.30
2023-04-29T07:57:17.941Z,2.60
2023-04-29T07:58:21.587Z,3.30
2023-04-29T07:59:26.011Z,3.00
2023-04-29T08:00:30.863Z,2.45
2023-04-29T08:01:36.506Z,3.20
2023-04-29T08:02:39.663Z,2.20
2023-04-29T08:04:55.916Z,2.20
2023-04-29T08:06:03.681Z,1.90
2023-04-29T08:07:07.461Z,2.00
2023-04-29T08:08:15.049Z,1.80
2023-04-29T08:09:18.960Z,2.45
2023-04-29T08:10:23.067Z,2.00
2023-04-29T08:11:26.956Z,2.40
2023-04-29T08:12:32.592Z,1.80
2023-04-29T08:13:36.822Z,2.30
2023-04-29T08:14:40.802Z,2.36
2023-04-29T08:15:43.759Z,2.40
2023-04-29T08:16:48.010Z,2.80
2023-04-29T08:17:51.615Z,2.70
2023-04-29T08:18:55.631Z,3.40
2023-04-29T08:19:59.301Z,2.10
2023-04-29T08:21:03.119Z,2.60
2023-04-29T08:22:05.913Z,2.90
2023-04-29T08:23:09.614Z,3.09
2023-04-29T08:24:13.055Z,3.10
2023-04-29T08:25:16.293Z,2.20
2023-04-29T08:26:19.417Z,2.90
2023-04-29T08:27:23.521Z,3.60
2023-04-29T08:28:28.477Z,2.60
2023-04-29T08:29:34.257Z,4.00
2023-04-29T08:30:39.162Z,3.80
2023-04-29T08:31:42.158Z,3.30
2023-04-29T08:32:45.671Z,3.50
2023-04-29T08:33:49.075Z,3.90
2023-04-29T08:34:52.964Z,2.90
2023-04-29T08:36:00.292Z,2.50
2023-04-29T08:37:02.996Z,3.60
2023-04-29T08:38:07.159Z,3.82
2023-04-29T08:39:10.196Z,3.00
2023-04-29T08:40:13.938Z,2.70
2023-04-29T08:41:17.012Z,4.00
2023-04-29T08:42:24.086Z,3.80
2023-04-29T08:43:29.694Z,3.60
2023-04-29T08:44:34.107Z,2.90
2023-04-29T08:45:36.907Z,4.30
2023-04-29T08:46:41.582Z,3.00
2023-04-29T08:47:44.308Z,2.40
2023-04-29T08:48:47.755Z,3.70
2023-04-29T08:51:03.956Z,3.00
2023-04-29T08:52:06.770Z,4.10
2023-04-29T08:54:23.215Z,3.20
2023-04-29T08:55:26.062Z,2.60
2023-04-29T08:56:29.368Z,3.50
2023-04-29T08:57:36.519Z,2.40
2023-04-29T08:58:39.537Z,2.60
2023-04-29T08:59:43.622Z,2.73
2023-04-29T09:00:46.554Z,2.50
2023-04-29T09:01:51.260Z,4.00
2023-04-29T09:02:54.916Z,2.70
2023-04-29T09:04:34.853Z,2.30
2023-04-29T09:05:39.004Z,2.40
2023-04-29T09:06:41.746Z,3.30
2023-04-29T09:07:44.382Z,3.10
2023-04-29T09:08:47.218Z,2.80
2023-04-29T09:09:52.627Z,3.40
2023-04-29T09:10:56.718Z,2.70
2023-04-29T09:11:59.495Z,5.00
2023-04-29T09:13:03.062Z,4.50
2023-04-29T09:14:07.115Z,3.80
2023-04-29T09:15:10.656Z,4.50
2023-04-29T09:16:13.471Z,3.50
2023-04-29T09:17:18.053Z,4.10
2023-04-29T09:18:46.579Z,3.90
2023-04-29T09:19:50.763Z,4.20
2023-04-29T09:20:54.150Z,3.60
2023-04-29T09:21:58.073Z,4.50
2023-04-29T09:23:05.813Z,3.00
2023-04-29T09:24:09.955Z,3.00
2023-04-29T09:25:13.316Z,4.00
2023-04-29T09:26:16.407Z,3.50
2023-04-29T09:27:28.774Z,3.55
2023-04-29T09:28:31.444Z,3.10
2023-04-29T09:29:37.012Z,2.30
2023-04-29T09:30:48.781Z,3.80
2023-04-29T09:31:57.554Z,3.10
2023-04-29T09:35:46.951Z,1.00
2023-04-29T09:36:51.797Z,2.30
2023-04-29T09:39:13.769Z,2.90
2023-04-29T09:40:40.464Z,2.10
2023-04-29T09:41:55.615Z,3.00
2023-04-29T09:42:58.911Z,2.30
2023-04-29T09:44:05.300Z,3.80
2023-04-29T09:45:09.907Z,2.70
2023-04-29T09:46:14.132Z,3.30
2023-04-29T09:47:17.431Z,2.80
2023-04-29T09:48:20.463Z,3.50
2023-04-29T09:49:28.540Z,1.80
2023-04-29T09:50:33.254Z,2.00
2023-04-29T09:51:41.721Z,2.00
2023-04-29T09:52:46.025Z,1.70
2023-04-29T09:53:48.754Z,2.60
2023-04-29T09:54:52.176Z,2.40
2023-04-29T09:56:03.420Z,2.00
2023-04-29T09:57:08.010Z,1.50
2023-04-29T09:58:15.054Z,2.10
2023-04-29T09:59:21.222Z,2.00
2023-04-29T10:00:24.923Z,1.70
2023-04-29T10:01:28.055Z,1.80
2023-04-29T10:02:31.733Z,0.00
2023-04-29T10:03:39.848Z,1.70
2023-04-29T10:04:45.237Z,1.80
2023-04-29T10:05:48.068Z,2.00
2023-04-29T10:08:06.654Z,2.10
2023-04-29T10:09:16.609Z,2.30
2023-04-29T10:10:20.333Z,2.00
2023-04-29T10:11:23.413Z,2.70
2023-04-29T10:12:27.018Z,1.50
2023-04-29T10:13:31.659Z,2.00
2023-04-29T10:14:38.060Z,1.50
2023-04-29T10:15:47.640Z,2.00
2023-04-29T10:17:08.002Z,1.20
2023-04-29T10:18:22.036Z,2.10
2023-04-29T10:19:27.624Z,2.00
2023-04-29T10:20:31.916Z,2.50
2023-04-29T10:21:34.602Z,2.50
2023-04-29T10:22:48.148Z,1.55
2023-04-29T10:23:52.729Z,2.30
2023-04-29T10:24:55.637Z,1.90
2023-04-29T10:26:01.075Z,2.27
2023-04-29T10:27:05.904Z,3.10
2023-04-29T10:29:27.992Z,2.20
2023-04-29T10:30:31.556Z,2.80
2023-04-29T10:31:34.175Z,3.20
2023-04-29T10:33:45.667Z,2.70
2023-04-29T10:34:49.116Z,2.00
2023-04-29T10:35:53.865Z,2.20
2023-04-29T10:36:57.369Z,3.00
2023-04-29T10:38:00.356Z,0.40
2023-04-29T10:39:04.914Z,2.00
2023-04-29T10:40:17.873Z,3.30
2023-04-29T10:41:26.217Z,1.80
2023-04-29T10:42:50.275Z,2.70
2023-04-29T10:43:54.657Z,1.80
2023-04-29T10:45:20.839Z,2.40
2023-04-29T10:46:26.315Z,2.20
2023-04-29T10:47:29.643Z,2.40
2023-04-29T10:48:33.092Z,2.70
2023-04-29T10:49:38.864Z,3.50
2023-04-29T10:50:48.158Z,2.00
2023-04-29T10:51:50.980Z,2.50
2023-04-29T10:52:58.316Z,3.30
2023-04-29T10:54:08.909Z,3.90
2023-04-29T10:55:13.022Z,3.50
2023-04-29T10:56:16.414Z,4.10
2023-04-29T10:57:22.109Z,3.00
2023-04-29T10:58:43.440Z,3.00
2023-04-29T10:59:47.830Z,2.60
2023-04-29T11:00:50.879Z,3.00
2023-04-29T11:01:54.726Z,2.60
2023-04-29T11:02:58.767Z,1.80
2023-04-29T11:04:03.751Z,3.10
2023-04-29T11:05:10.926Z,2.00
2023-04-29T11:06:15.022Z,3.70
2023-04-29T11:07:30.356Z,2.60
2023-04-29T11:09:46.472Z,3.20
2023-04-29T11:10:54.399Z,3.90
2023-04-29T11:12:03.478Z,3.30
2023-04-29T11:13:26.360Z,3.70
2023-04-29T11:14:36.917Z,2.60
2023-04-29T11:15:41.420Z,3.50
2023-04-29T11:18:11.694Z,2.70
2023-04-29T11:19:17.278Z,2.90
2023-04-29T11:20:21.068Z,2.50
2023-04-29T11:21:23.990Z,2.70
2023-04-29T11:22:30.637Z,2.91
2023-04-29T11:26:21.987Z,2.00
2023-04-29T11:27:27.155Z,3.40
2023-04-29T11:28:32.083Z,2.40
2023-04-29T11:29:35.927Z,3.40
2023-04-29T11:30:40.293Z,3.20
2023-04-29T11:31:43.518Z,2.70
2023-04-29T11:32:57.064Z,2.40
2023-04-29T11:34:00.557Z,2.50
2023-04-29T11:35:16.003Z,3.40
2023-04-29T11:36:20.174Z,2.20
2023-04-29T11:37:24.530Z,3.00
2023-04-29T11:39:46.528Z,1.80
2023-04-29T11:40:50.398Z,2.20
2023-04-29T11:43:20.774Z,1.00
2023-04-29T11:44:26.209Z,1.10
2023-04-29T11:45:28.821Z,2.10
2023-04-29T11:46:32.380Z,2.45
2023-04-29T11:47:35.347Z,1.80
2023-04-29T11:49:51.707Z,1.50
2023-04-29T11:50:57.636Z,2.80
2023-04-29T11:52:01.004Z,2.40
2023-04-29T11:53:03.814Z,3.00
2023-04-29T11:54:08.324Z,2.18
2023-04-29T11:55:11.310Z,2.20
2023-04-29T11:56:15.081Z,0.00
2023-04-29T11:57:17.797Z,2.20
2023-04-29T11:58:21.148Z,2.20
2023-04-29T11:59:24.727Z,2.60
2023-04-29T12:00:29.261Z,3.00
2023-04-29T12:01:32.200Z,2.00
2023-04-29T12:02:37.285Z,1.80
2023-04-29T12:03:40.335Z,1.90
2023-04-29T12:04:46.809Z,1.40
2023-04-29T12:05:56.890Z,1.80
2023-04-29T12:07:03.173Z,1.90
2023-04-29T12:08:07.514Z,2.80
2023-04-29T12:09:11.245Z,1.40
2023-04-29T12:10:14.648Z,2.00
2023-04-29T12:11:17.334Z,1.80
2023-04-29T12:12:20.716Z,2.20
2023-04-29T12:13:24.820Z,2.60
2023-04-29T12:14:27.674Z,2.90
2023-04-29T12:15:31.329Z,2.73
2023-04-29T12:16:34.182Z,1.80
2023-04-29T12:17:38.373Z,2.00
2023-04-29T12:18:41.229Z,2.90
2023-04-29T12:19:44.392Z,2.10
2023-04-29T12:20:48.700Z,3.10
2023-04-29T12:21:53.304Z,3.00
2023-04-29T12:22:56.355Z,2.60
2023-04-29T12:24:00.858Z,2.50
2023-04-29T12:25:04.329Z,3.00
2023-04-29T12:26:09.689Z,2.40
2023-04-29T12:27:12.502Z,2.80
2023-04-29T12:28:22.349Z,2.70
2023-04-29T12:29:38.662Z,2.40
2023-04-29T12:32:37.667Z,2.50
2023-04-29T12:33:56.000Z,2.20
2023-04-29T12:35:16.641Z,2.00
2023-04-29T12:36:20.655Z,2.60
2023-04-29T12:37:23.843Z,2.60
2023-04-29T12:38:29.432Z,2.10
2023-04-29T12:39:39.993Z,1.90
2023-04-29T12:40:44.335Z,1.90
2023-04-29T12:41:47.033Z,3.40
2023-04-29T12:42:49.676Z,2.00
2023-04-29T12:43:52.532Z,2.50
2023-04-29T12:44:56.015Z,2.55
2023-04-29T12:46:04.367Z,2.10
2023-04-29T12:48:29.726Z,2.40
2023-04-29T12:50:40.404Z,2.00
2023-04-29T12:51:44.582Z,3.09
2023-04-29T12:52:47.155Z,3.00
2023-04-29T12:53:50.601Z,2.00
2023-04-29T12:54:54.682Z,2.80
2023-04-29T12:55:57.571Z,2.30
2023-04-29T12:57:01.642Z,3.00
2023-04-29T12:58:05.642Z,2.90
2023-04-29T13:00:22.424Z,3.30
2023-04-29T13:01:25.670Z,3.80
2023-04-29T13:02:37.917Z,2.40
2023-04-29T13:03:41.110Z,3.10
2023-04-29T13:04:44.201Z,3.50
2023-04-29T13:05:48.905Z,3.40
2023-04-29T13:06:53.697Z,5.60
2023-04-29T13:07:58.001Z,6.30
2023-04-29T13:09:00.819Z,7.70
2023-04-29T13:11:20.714Z,14.30
2023-04-29T13:12:24.483Z,16.90
2023-04-29T13:13:27.988Z,17.80
2023-04-29T13:14:32.373Z,21.10
2023-04-29T13:15:36.351Z,27.20
2023-04-29T13:16:39.248Z,30.70
2023-04-29T13:17:42.369Z,34.73
2023-04-29T13:18:58.982Z,46.40
2023-04-29T13:19:52.409Z,51.30
2023-04-29T13:20:55.579Z,36.00
2023-04-29T13:21:58.247Z,52.20
2023-04-29T13:23:02.220Z,63.20
2023-04-29T13:24:07.102Z,77.80
2023-04-29T13:25:14.436Z,73.78
2023-04-29T13:26:21.153Z,85.30
2023-04-29T13:27:27.402Z,93.90
2023-04-29T13:28:30.162Z,100.50
2023-04-29T13:29:33.827Z,110.90
2023-04-29T13:30:38.561Z,114.40
2023-04-29T13:31:45.804Z,125.20
2023-04-29T13:32:55.212Z,129.30
2023-04-29T13:33:55.230Z,140.40
2023-04-29T13:34:58.465Z,139.50
2023-04-29T13:36:01.453Z,149.40
2023-04-29T13:37:04.071Z,143.36
2023-04-29T13:38:07.590Z,145.40
2023-04-29T13:40:28.027Z,144.10
2023-04-29T13:41:34.577Z,150.30
2023-04-29T13:42:45.213Z,146.40
2023-04-29T13:43:43.628Z,153.60
2023-04-29T13:44:52.242Z,161.30
2023-04-29T13:45:52.831Z,158.90
2023-04-29T13:46:56.195Z,158.50
2023-04-29T13:48:09.547Z,166.00
2023-04-29T13:49:26.704Z,158.90
2023-04-29T13:50:50.620Z,151.30
2023-04-29T13:51:56.261Z,155.50
2023-04-29T13:52:55.682Z,163.90
2023-04-29T13:53:51.234Z,152.30
2023-04-29T14:00:25.069Z,161.50
2023-04-29T14:01:44.083Z,153.10
2023-04-29T14:03:24.844Z,155.70
2023-04-29T14:04:29.463Z,161.60
2023-04-29T14:05:32.862Z,151.30
2023-04-29T14:06:36.940Z,159.40
2023-04-29T14:07:39.837Z,161.40
2023-04-29T14:08:42.405Z,154.40
2023-04-29T14:09:46.767Z,157.80
2023-04-29T14:10:50.566Z,159.70
2023-04-29T14:11:54.364Z,158.00
2023-04-29T14:12:57.089Z,155.40
2023-04-29T14:14:00.367Z,150.50
2023-04-29T14:16:17.496Z,154.60
2023-04-29T14:17:21.091Z,156.70
2023-04-29T14:18:23.967Z,149.70
2023-04-29T14:19:26.977Z,154.90
2023-04-29T14:20:32.453Z,150.50
2023-04-29T14:21:35.611Z,141.50
2023-04-29T14:22:38.593Z,148.60
2023-04-29T14:23:42.157Z,149.10
2023-04-29T14:24:47.813Z,148.50
2023-04-29T14:27:03.302Z,143.40
2023-04-29T14:28:08.272Z,146.90
2023-04-29T14:29:13.829Z,136.90
2023-04-29T14:30:19.048Z,137.00
2023-04-29T14:31:21.918Z,131.80
2023-04-29T14:32:26.122Z,134.00
2023-04-29T14:34:44.410Z,131.00
2023-04-29T14:35:48.213Z,119.10
2023-04-29T14:36:52.064Z,125.50
2023-04-29T14:37:55.597Z,125.10
2023-04-29T14:39:00.401Z,118.30
2023-04-29T14:40:05.200Z,114.70
2023-04-29T14:41:08.171Z,111.30
2023-04-29T14:42:12.914Z,114.30
2023-04-29T14:43:16.091Z,115.00
2023-04-29T14:44:18.765Z,111.18
2023-04-29T14:45:21.823Z,105.55
2023-04-29T14:46:25.341Z,106.30
2023-04-29T14:47:28.955Z,105.90
2023-04-29T14:48:32.609Z,102.80
2023-04-29T14:49:35.230Z,102.30
2023-04-29T14:50:38.198Z,102.40
2023-04-29T14:51:42.837Z,100.30
2023-04-29T14:52:46.338Z,101.40
2023-04-29T14:53:49.352Z,102.70
2023-04-29T14:54:52.954Z,97.90
2023-04-29T14:55:56.813Z,97.00
2023-04-29T14:57:00.945Z,90.36
2023-04-29T14:58:05.124Z,93.80
2023-04-29T14:59:09.215Z,92.10
2023-04-29T15:00:14.651Z,90.90
2023-04-29T15:01:18.595Z,92.00
2023-04-29T15:02:22.934Z,84.90
2023-04-29T15:03:25.934Z,86.40
2023-04-29T15:04:32.274Z,85.40
2023-04-29T15:05:36.057Z,84.60
2023-04-29T15:06:41.435Z,80.80
2023-04-29T15:07:44.511Z,81.40
2023-04-29T15:08:48.415Z,83.45
2023-04-29T15:09:51.892Z,84.10
2023-04-29T15:10:55.750Z,83.20
2023-04-29T15:12:00.225Z,80.80
2023-04-29T15:13:03.852Z,81.00
2023-04-29T15:14:08.261Z,76.10
2023-04-29T15:15:11.956Z,78.60
2023-04-29T15:16:16.139Z,78.00
2023-04-29T15:17:19.552Z,77.10
2023-04-29T15:18:23.540Z,77.90
2023-04-29T15:19:26.203Z,77.50
2023-04-29T15:20:29.815Z,77.80
2023-04-29T15:21:33.815Z,78.20
2023-04-29T15:22:36.501Z,74.60
2023-04-29T15:23:40.333Z,76.55
2023-04-29T15:24:43.764Z,71.30
2023-04-29T15:25:47.291Z,70.80
2023-04-29T15:26:51.544Z,68.30
2023-04-29T15:27:58.574Z,78.10